Time;durP1;ratioP1;P1;durP2;ratioP2;P2;SDS_P1;SDS_P2;PMS_P1;PMS_P2;Temp;Humidity;BMP_temperature;BMP_pressure;BME280_temperature;BME280_humidity;BME280_pressure;Samples;Min_cycle;Max_cycle;Signal;HPM_P1;HPM_P2
2023/05/27 00:00:13;;;;;;;8.23;5.67;;;19.20;62.70;;;;;;5023833;28;21182;-65
2023/05/27 00:02:39;;;;;;;12.93;6.80;;;19.10;62.70;;;;;;5022920;28;20223;-65
2023/05/27 00:05:04;;;;;;;9.13;5.80;;;19.10;62.70;;;;;;5017262;28;20180;-65
2023/05/27 00:07:30;;;;;;;9.67;6.27;;;19.00;62.60;;;;;;5021188;28;20181;-65
2023/05/27 00:09:56;;;;;;;10.40;6.27;;;19.00;62.70;;;;;;5024873;28;20200;-65
2023/05/27 00:12:22;;;;;;;11.13;6.40;;;19.00;62.80;;;;;;5022502;28;20473;-65
2023/05/27 00:14:48;;;;;;;12.90;6.17;;;19.00;62.90;;;;;;5025199;28;20486;-65
2023/05/27 00:17:13;;;;;;;9.00;6.37;;;18.90;62.80;;;;;;5024913;28;20203;-65
2023/05/27 00:19:40;;;;;;;13.27;7.40;;;18.90;62.90;;;;;;5018065;28;20223;-65
2023/05/27 00:22:06;;;;;;;11.23;6.23;;;18.90;62.80;;;;;;5020768;28;20225;-65
2023/05/27 00:24:34;;;;;;;15.10;6.20;;;18.90;62.70;;;;;;5018179;28;20481;-65
2023/05/27 00:27:01;;;;;;;16.30;7.00;;;18.80;62.70;;;;;;5025912;28;20455;-65
2023/05/27 00:29:27;;;;;;;11.47;5.63;;;18.80;62.70;;;;;;5017344;28;20451;-65
2023/05/27 00:31:52;;;;;;;10.10;5.27;;;18.80;62.70;;;;;;5027212;28;20434;-65
2023/05/27 00:34:18;;;;;;;8.27;5.53;;;18.80;62.70;;;;;;5029580;28;20181;-65
2023/05/27 00:36:43;;;;;;;11.13;5.90;;;18.70;62.50;;;;;;5023620;28;20395;-65
2023/05/27 00:39:09;;;;;;;15.07;5.83;;;18.70;62.50;;;;;;5020541;28;20196;-65
2023/05/27 00:41:35;;;;;;;10.97;6.70;;;18.70;62.50;;;;;;5021729;28;20230;-65
2023/05/27 00:44:01;;;;;;;9.53;6.50;;;18.60;62.50;;;;;;5022101;28;20813;-65
2023/05/27 00:46:27;;;;;;;9.43;5.80;;;18.60;62.50;;;;;;5030349;28;20446;-65
2023/05/27 00:48:52;;;;;;;12.20;7.10;;;18.60;62.60;;;;;;5026288;28;21006;-65
2023/05/27 00:51:18;;;;;;;11.67;7.07;;;18.60;62.60;;;;;;5022802;28;20235;-65
2023/05/27 00:53:46;;;;;;;9.10;6.60;;;18.50;62.20;;;;;;5017205;28;20271;-65
2023/05/27 00:56:15;;;;;;;11.37;7.27;;;18.50;62.20;;;;;;5017570;28;20526;-65
2023/05/27 00:58:40;;;;;;;12.40;6.10;;;18.50;62.30;;;;;;5019602;28;20451;-65
2023/05/27 01:01:07;;;;;;;9.23;6.23;;;18.50;62.20;;;;;;5025254;28;20795;-65
2023/05/27 01:03:33;;;;;;;11.97;6.50;;;18.40;62.40;;;;;;5019778;28;20256;-65
2023/05/27 01:06:24;;;;;;;16.10;6.17;;;18.40;62.40;;;;;;5018411;28;20903;-65
2023/05/27 01:09:10;;;;;;;9.83;6.17;;;18.30;62.40;;;;;;5019667;28;20518;-65
2023/05/27 01:11:47;;;;;;;9.30;6.00;;;18.30;62.40;;;;;;5018057;28;20924;-65
2023/05/27 01:14:14;;;;;;;13.10;6.43;;;18.30;62.40;;;;;;5021462;28;20866;-65
2023/05/27 01:16:44;;;;;;;13.53;6.00;;;18.30;62.40;;;;;;5027190;28;20466;-65
2023/05/27 01:19:17;;;;;;;14.47;6.23;;;18.20;62.20;;;;;;5023681;28;20468;-65
2023/05/27 01:21:50;;;;;;;12.93;6.10;;;18.20;62.20;;;;;;5023190;28;20753;-65
2023/05/27 01:24:16;;;;;;;12.10;5.40;;;18.20;62.10;;;;;;5015714;28;20494;-65
2023/05/27 01:26:42;;;;;;;14.27;6.30;;;18.20;61.90;;;;;;5012868;28;20723;-65
2023/05/27 01:29:08;;;;;;;12.63;5.90;;;18.10;61.70;;;;;;5028505;28;20199;-65
2023/05/27 01:31:47;;;;;;;11.47;6.50;;;18.10;61.70;;;;;;5027198;28;20473;-65
2023/05/27 01:34:18;;;;;;;10.63;6.00;;;18.10;61.70;;;;;;5026024;28;20246;-65
2023/05/27 01:36:47;;;;;;;9.60;5.40;;;18.00;61.50;;;;;;5022517;28;20470;-65
2023/05/27 01:39:14;;;;;;;8.23;5.20;;;18.00;61.60;;;;;;5020632;28;20935;-65
2023/05/27 01:41:42;;;;;;;15.40;5.63;;;18.00;61.60;;;;;;5021999;28;20505;-65
2023/05/27 01:44:09;;;;;;;12.30;5.73;;;17.90;61.60;;;;;;5028485;28;20434;-65
2023/05/27 01:46:34;;;;;;;12.40;5.60;;;17.90;61.70;;;;;;5027685;28;20418;-65
2023/05/27 01:49:00;;;;;;;11.43;6.20;;;17.90;61.60;;;;;;5022262;28;20806;-65
2023/05/27 01:51:25;;;;;;;11.97;5.30;;;17.90;61.70;;;;;;5014219;28;20189;-65
2023/05/27 01:53:51;;;;;;;13.57;5.40;;;17.90;61.70;;;;;;5026579;28;20181;-65
2023/05/27 01:56:16;;;;;;;12.27;5.40;;;17.90;61.80;;;;;;5018762;28;20236;-65
2023/05/27 01:58:42;;;;;;;12.03;5.00;;;17.90;61.80;;;;;;5019693;28;20264;-65
2023/05/27 02:01:07;;;;;;;10.80;5.10;;;17.80;61.90;;;;;;5021541;28;20265;-65
2023/05/27 02:03:33;;;;;;;12.20;5.37;;;17.80;61.90;;;;;;5022661;28;20184;-65
2023/05/27 02:05:58;;;;;;;17.27;5.13;;;17.80;62.10;;;;;;5029528;28;20180;-65
2023/05/27 02:08:24;;;;;;;14.00;5.20;;;17.70;62.10;;;;;;5025703;28;20686;-65
2023/05/27 02:10:49;;;;;;;9.90;5.50;;;17.70;62.20;;;;;;5022488;28;20177;-65
2023/05/27 02:13:15;;;;;;;12.50;5.60;;;17.70;62.40;;;;;;5031679;28;20179;-65
2023/05/27 02:15:41;;;;;;;10.13;4.93;;;17.60;62.30;;;;;;5024683;28;20204;-65
2023/05/27 02:18:07;;;;;;;8.70;5.40;;;17.60;62.50;;;;;;5026877;28;20624;-65
2023/05/27 02:20:32;;;;;;;9.47;5.43;;;17.60;62.50;;;;;;5027643;28;20933;-65
2023/05/27 02:22:58;;;;;;;10.73;5.57;;;17.60;62.70;;;;;;5020795;28;20176;-65
2023/05/27 02:25:23;;;;;;;12.93;5.67;;;17.60;62.90;;;;;;5029029;28;20184;-65
2023/05/27 02:27:52;;;;;;;9.83;5.80;;;17.50;62.90;;;;;;5026598;28;20180;-65
2023/05/27 02:30:17;;;;;;;8.50;4.63;;;17.50;63.00;;;;;;5028165;28;20576;-65
2023/05/27 02:32:43;;;;;;;9.83;5.43;;;17.50;63.00;;;;;;5020160;28;20434;-65
2023/05/27 02:35:12;;;;;;;10.47;5.23;;;17.50;63.10;;;;;;5023521;28;20559;-65
2023/05/27 02:37:38;;;;;;;13.17;5.43;;;17.40;63.10;;;;;;5022015;28;20472;-65
2023/05/27 02:40:05;;;;;;;8.20;5.23;;;17.40;63.20;;;;;;5022982;28;20477;-65
2023/05/27 02:42:30;;;;;;;10.07;5.40;;;17.40;63.30;;;;;;5028118;28;20230;-65
2023/05/27 02:44:56;;;;;;;9.37;5.17;;;17.40;63.40;;;;;;5025678;28;20411;-65
2023/05/27 02:47:21;;;;;;;9.90;5.50;;;17.30;63.30;;;;;;5027932;28;20282;-65
2023/05/27 02:49:47;;;;;;;15.07;5.80;;;17.30;63.30;;;;;;5020624;28;20570;-65
2023/05/27 02:52:13;;;;;;;11.93;6.03;;;17.30;63.30;;;;;;5027904;28;20708;-65
2023/05/27 02:54:38;;;;;;;9.40;5.13;;;17.30;64.30;;;;;;5030338;28;20252;-65
2023/05/27 02:57:04;;;;;;;10.33;4.63;;;17.30;63.50;;;;;;5026104;28;20675;-65
2023/05/27 02:59:29;;;;;;;15.63;5.20;;;17.30;63.50;;;;;;5021164;28;20643;-65
2023/05/27 03:01:55;;;;;;;15.60;5.03;;;17.20;63.50;;;;;;5026237;28;20184;-65
2023/05/27 03:04:21;;;;;;;11.50;5.13;;;17.20;63.60;;;;;;5025570;28;20443;-65
2023/05/27 03:06:47;;;;;;;12.77;5.37;;;17.20;63.70;;;;;;5025324;28;20189;-65
2023/05/27 03:09:14;;;;;;;11.40;5.10;;;17.20;63.80;;;;;;5024765;28;20204;-65
2023/05/27 03:11:39;;;;;;;12.03;5.33;;;17.10;63.70;;;;;;5023913;28;20432;-65
2023/05/27 03:14:05;;;;;;;10.70;6.07;;;17.10;63.80;;;;;;5031656;28;20426;-65
2023/05/27 03:16:31;;;;;;;10.23;5.10;;;17.10;64.00;;;;;;5026694;28;20817;-65
2023/05/27 03:18:57;;;;;;;9.33;5.03;;;17.10;64.10;;;;;;5021444;28;20819;-65
2023/05/27 03:21:22;;;;;;;11.03;5.27;;;17.00;63.90;;;;;;5026377;28;20434;-65
2023/05/27 03:23:48;;;;;;;13.73;5.90;;;17.00;64.00;;;;;;5027540;28;20188;-65
2023/05/27 03:26:13;;;;;;;10.97;5.67;;;17.00;64.10;;;;;;5025627;28;20279;-65
2023/05/27 03:28:39;;;;;;;10.87;5.57;;;17.00;64.20;;;;;;5023101;28;20208;-65
2023/05/27 03:31:05;;;;;;;13.30;5.10;;;16.90;64.20;;;;;;5025579;28;20212;-65
2023/05/27 03:33:31;;;;;;;9.77;4.57;;;16.90;64.40;;;;;;5028994;28;20817;-65
2023/05/27 03:35:56;;;;;;;6.30;4.33;;;16.90;64.40;;;;;;5030403;28;20255;-65
2023/05/27 03:38:22;;;;;;;11.17;4.60;;;16.90;64.60;;;;;;5021283;28;20291;-65
2023/05/27 03:40:48;;;;;;;11.93;5.60;;;16.90;64.70;;;;;;5024274;28;20192;-65
2023/05/27 03:43:13;;;;;;;9.93;4.90;;;16.80;64.70;;;;;;5020667;28;20384;-65
2023/05/27 03:45:39;;;;;;;9.13;4.60;;;16.80;64.90;;;;;;5028912;28;20208;-65
2023/05/27 03:48:05;;;;;;;13.10;5.50;;;16.80;65.00;;;;;;5023092;28;20200;-65
2023/05/27 03:50:33;;;;;;;17.07;6.20;;;16.80;65.00;;;;;;5028215;28;20547;-65
2023/05/27 03:52:58;;;;;;;9.87;5.10;;;16.80;65.10;;;;;;5023160;28;20264;-65
2023/05/27 03:55:24;;;;;;;12.30;5.40;;;16.70;65.00;;;;;;5029353;28;20565;-65
2023/05/27 03:57:50;;;;;;;12.10;5.77;;;16.70;65.40;;;;;;5026365;28;20207;-65
2023/05/27 04:00:17;;;;;;;12.80;4.90;;;16.70;65.50;;;;;;5024093;28;20946;-65
2023/05/27 04:02:42;;;;;;;7.27;4.80;;;16.70;65.60;;;;;;5024962;28;20415;-65
2023/05/27 04:05:08;;;;;;;12.17;6.03;;;16.60;65.70;;;;;;5021975;28;20427;-65
2023/05/27 04:07:34;;;;;;;13.13;5.37;;;16.60;65.70;;;;;;5022023;28;20184;-65
2023/05/27 04:09:59;;;;;;;12.17;5.33;;;16.60;65.70;;;;;;5021660;28;20296;-65
2023/05/27 04:12:25;;;;;;;12.97;5.70;;;16.70;66.10;;;;;;5024138;28;20231;-65
2023/05/27 04:14:51;;;;;;;16.47;5.30;;;16.60;66.10;;;;;;5019478;28;20184;-65
2023/05/27 04:17:17;;;;;;;9.60;5.50;;;16.60;66.20;;;;;;5030986;28;20206;-65
2023/05/27 04:19:43;;;;;;;11.30;4.87;;;16.60;66.30;;;;;;5022905;28;20213;-65
2023/05/27 04:22:08;;;;;;;10.77;5.23;;;16.60;66.60;;;;;;5026622;28;21229;-65
2023/05/27 04:24:34;;;;;;;8.60;5.00;;;16.60;66.50;;;;;;5019723;28;20435;-65
2023/05/27 04:27:01;;;;;;;7.17;4.60;;;16.60;66.60;;;;;;5022884;28;20745;-65
2023/05/27 04:29:27;;;;;;;15.90;5.47;;;16.60;66.60;;;;;;5020409;28;20200;-65
2023/05/27 04:31:52;;;;;;;11.80;6.40;;;16.60;66.70;;;;;;5024404;28;20469;-65
2023/05/27 04:34:18;;;;;;;12.90;5.47;;;16.60;66.80;;;;;;5025122;28;20846;-65
2023/05/27 04:36:49;;;;;;;11.23;5.23;;;16.60;67.40;;;;;;5024177;28;20443;-65
2023/05/27 04:39:15;;;;;;;11.63;4.93;;;16.50;67.30;;;;;;5021706;28;20207;-65
2023/05/27 04:41:41;;;;;;;17.20;5.47;;;16.50;67.70;;;;;;5023763;28;20457;-65
2023/05/27 04:44:07;;;;;;;12.80;5.10;;;16.50;67.80;;;;;;5025160;28;20411;-65
2023/05/27 04:46:33;;;;;;;7.37;4.80;;;16.50;68.30;;;;;;5024537;28;20215;-65
2023/05/27 04:48:59;;;;;;;12.00;5.10;;;16.50;68.60;;;;;;5021358;28;20215;-65
2023/05/27 04:51:25;;;;;;;10.27;5.57;;;16.50;68.60;;;;;;5015082;28;20423;-65
2023/05/27 04:53:50;;;;;;;9.30;5.80;;;16.50;68.60;;;;;;5021205;28;20415;-65
2023/05/27 04:56:17;;;;;;;11.30;5.20;;;16.50;68.50;;;;;;5022950;28;20801;-65
2023/05/27 04:58:46;;;;;;;7.23;5.33;;;16.50;68.50;;;;;;5025625;28;20443;-65
2023/05/27 05:01:18;;;;;;;13.90;6.10;;;16.50;68.30;;;;;;5024609;28;20977;-64
2023/05/27 05:06:29;;;;;;;10.47;5.30;;;16.60;67.70;;;;;;5020370;28;20437;-65
2023/05/27 05:08:55;;;;;;;10.60;4.50;;;16.60;67.60;;;;;;5019922;28;20457;-65
2023/05/27 05:11:21;;;;;;;13.10;4.87;;;16.60;67.50;;;;;;5026653;28;20181;-65
2023/05/27 05:13:46;;;;;;;11.83;4.73;;;16.60;67.10;;;;;;5024243;28;20689;-65
2023/05/27 05:16:12;;;;;;;16.07;6.00;;;16.60;67.10;;;;;;5018080;28;20467;-65
2023/05/27 05:18:38;;;;;;;10.67;4.73;;;16.60;66.90;;;;;;5018437;28;20275;-65
2023/05/27 05:21:03;;;;;;;9.07;4.50;;;16.70;67.00;;;;;;5019130;28;20199;-65
2023/05/27 05:23:30;;;;;;;9.77;4.93;;;16.70;66.80;;;;;;5021270;28;20671;-65
2023/05/27 05:25:58;;;;;;;8.83;4.73;;;16.70;66.70;;;;;;5022540;28;20646;-65
2023/05/27 05:28:24;;;;;;;8.70;4.20;;;16.70;66.50;;;;;;5025212;28;21116;-65
2023/05/27 05:30:50;;;;;;;11.50;5.13;;;16.70;66.20;;;;;;5024523;28;20430;-65
2023/05/27 05:33:15;;;;;;;8.87;4.43;;;16.80;66.10;;;;;;5027980;28;20180;-65
2023/05/27 05:35:41;;;;;;;8.67;4.47;;;16.80;66.00;;;;;;5024599;28;20208;-65
2023/05/27 05:38:07;;;;;;;13.17;4.77;;;16.80;66.00;;;;;;5011478;28;20654;-65
2023/05/27 05:40:32;;;;;;;9.60;4.50;;;16.80;65.80;;;;;;5022428;28;20255;-65
2023/05/27 05:42:58;;;;;;;9.00;5.17;;;16.90;65.50;;;;;;5026729;28;20464;-65
2023/05/27 05:45:24;;;;;;;9.87;5.53;;;16.90;65.30;;;;;;5028348;28;20294;-65
2023/05/27 05:47:49;;;;;;;10.67;5.20;;;16.90;64.60;;;;;;5024966;28;20231;-65
2023/05/27 05:50:15;;;;;;;10.77;5.73;;;16.90;64.30;;;;;;5022702;28;20506;-65
2023/05/27 05:52:41;;;;;;;16.67;5.60;;;16.90;63.90;;;;;;5019693;28;20680;-65
2023/05/27 05:55:07;;;;;;;10.43;4.57;;;16.90;63.30;;;;;;5020413;28;20721;-65
2023/05/27 05:57:32;;;;;;;12.07;5.00;;;16.90;63.10;;;;;;5026432;28;20187;-65
2023/05/27 05:59:58;;;;;;;9.03;4.50;;;17.00;63.20;;;;;;5020981;28;21220;-65
2023/05/27 06:02:25;;;;;;;8.67;5.00;;;16.90;63.00;;;;;;5021494;28;20200;-65
2023/05/27 06:04:50;;;;;;;7.10;4.23;;;17.00;62.90;;;;;;5032096;28;20176;-65
2023/05/27 06:07:16;;;;;;;9.67;4.17;;;17.00;63.20;;;;;;5023947;28;20419;-65
2023/05/27 06:09:42;;;;;;;9.10;5.00;;;17.00;63.40;;;;;;5025217;28;20204;-65
2023/05/27 06:12:07;;;;;;;11.03;5.23;;;17.00;63.00;;;;;;5026532;28;20180;-66
2023/05/27 06:14:33;;;;;;;14.87;5.00;;;17.00;62.70;;;;;;5017656;28;20271;-65
2023/05/27 06:16:59;;;;;;;10.63;5.20;;;17.10;62.70;;;;;;5028064;28;20223;-65
2023/05/27 06:19:24;;;;;;;9.73;5.20;;;17.10;62.60;;;;;;5027319;28;20235;-65
2023/05/27 06:21:50;;;;;;;20.00;7.80;;;17.10;62.60;;;;;;5026084;28;20196;-65
2023/05/27 06:24:16;;;;;;;10.77;5.63;;;17.20;62.90;;;;;;5024070;28;20190;-65
2023/05/27 06:26:41;;;;;;;12.87;4.43;;;17.20;62.90;;;;;;5022257;28;20204;-65
2023/05/27 06:29:07;;;;;;;14.47;9.50;;;17.20;62.80;;;;;;5025567;28;20486;-65
2023/05/27 06:31:33;;;;;;;24.23;13.73;;;17.20;62.90;;;;;;5030870;28;20234;-65
2023/05/27 06:33:58;;;;;;;16.07;7.67;;;17.30;62.70;;;;;;5024486;28;20708;-65
2023/05/27 06:36:24;;;;;;;14.90;6.97;;;17.30;62.50;;;;;;5025219;28;20221;-65
2023/05/27 06:38:50;;;;;;;12.93;6.53;;;17.40;62.70;;;;;;5028836;28;20204;-65
2023/05/27 06:41:16;;;;;;;17.00;5.83;;;17.40;62.70;;;;;;5025516;28;20179;-65
2023/05/27 06:43:42;;;;;;;14.03;5.30;;;17.40;63.40;;;;;;5027132;28;20515;-65
2023/05/27 06:46:08;;;;;;;15.17;6.30;;;17.50;62.30;;;;;;5030251;28;20204;-65
2023/05/27 06:48:33;;;;;;;13.33;5.07;;;17.50;62.30;;;;;;5029053;28;20442;-65
2023/05/27 06:50:59;;;;;;;9.70;4.63;;;17.50;62.60;;;;;;5026906;28;20242;-65
2023/05/27 06:53:25;;;;;;;13.23;4.97;;;17.60;62.40;;;;;;5021201;28;20938;-65
2023/05/27 06:55:50;;;;;;;11.77;5.70;;;17.60;62.60;;;;;;5020028;28;20615;-65
2023/05/27 06:58:16;;;;;;;7.90;4.93;;;17.60;62.20;;;;;;5026624;28;20228;-65
2023/05/27 07:00:41;;;;;;;10.60;4.60;;;17.70;62.70;;;;;;5019905;28;20180;-65
2023/05/27 07:03:07;;;;;;;12.90;5.60;;;17.70;62.30;;;;;;5023904;28;20199;-65
2023/05/27 07:05:32;;;;;;;7.60;4.13;;;17.80;62.10;;;;;;5026271;28;20185;-65
2023/05/27 07:07:58;;;;;;;9.33;4.63;;;17.80;62.30;;;;;;5028823;28;20196;-65
2023/05/27 07:10:23;;;;;;;13.23;5.50;;;17.80;62.30;;;;;;5026692;28;20192;-65
2023/05/27 07:12:49;;;;;;;13.70;5.83;;;17.90;62.40;;;;;;5024883;28;20303;-65
2023/05/27 07:15:15;;;;;;;9.70;4.97;;;17.90;62.40;;;;;;5019150;28;20208;-65
2023/05/27 07:17:40;;;;;;;15.30;5.43;;;18.00;61.80;;;;;;5024072;28;20184;-65
2023/05/27 07:20:06;;;;;;;13.70;4.70;;;18.00;62.10;;;;;;5025963;28;20243;-65
2023/05/27 07:22:32;;;;;;;7.07;4.63;;;18.10;62.20;;;;;;5032312;28;20230;-65
2023/05/27 07:24:57;;;;;;;11.63;4.73;;;18.10;62.50;;;;;;5017980;28;20427;-66
2023/05/27 07:27:23;;;;;;;9.20;5.30;;;18.20;62.70;;;;;;5020539;28;20181;-65
2023/05/27 07:29:48;;;;;;;10.90;5.40;;;18.20;62.40;;;;;;5022713;28;20271;-66
2023/05/27 07:32:14;;;;;;;7.43;4.20;;;18.30;62.50;;;;;;5029221;28;20176;-66
2023/05/27 07:34:40;;;;;;;6.97;4.70;;;18.30;62.60;;;;;;5024591;28;20181;-65
2023/05/27 07:37:05;;;;;;;15.10;5.43;;;18.40;62.70;;;;;;5026712;28;20244;-65
2023/05/27 07:39:31;;;;;;;13.23;5.27;;;18.50;62.50;;;;;;5021608;28;20200;-65
2023/05/27 07:41:57;;;;;;;13.40;5.97;;;18.50;62.30;;;;;;5022951;28;20604;-65
2023/05/27 07:44:22;;;;;;;11.87;5.37;;;18.50;61.70;;;;;;5027458;28;20180;-65
2023/05/27 07:46:48;;;;;;;8.93;5.13;;;18.60;61.70;;;;;;5028345;28;20275;-65
2023/05/27 07:49:14;;;;;;;19.37;6.60;;;18.60;61.80;;;;;;5020583;28;20849;-65
2023/05/27 07:51:40;;;;;;;11.47;4.80;;;18.70;61.90;;;;;;5020514;28;20181;-65
2023/05/27 07:54:06;;;;;;;9.30;4.80;;;18.70;61.90;;;;;;5019085;28;20508;-65
2023/05/27 07:56:31;;;;;;;14.30;5.70;;;18.80;61.80;;;;;;5019553;28;20204;-65
2023/05/27 07:58:57;;;;;;;8.90;5.03;;;18.80;61.40;;;;;;5016798;28;20243;-65
2023/05/27 08:01:22;;;;;;;11.33;4.97;;;18.90;61.10;;;;;;5021094;28;20714;-65
2023/05/27 08:03:48;;;;;;;9.93;4.90;;;19.00;61.00;;;;;;5017141;28;20181;-65
2023/05/27 08:06:15;;;;;;;17.17;8.40;;;19.00;61.20;;;;;;5021967;28;20220;-65
2023/05/27 08:08:41;;;;;;;9.47;4.80;;;19.00;61.60;;;;;;5025649;28;20299;-65
2023/05/27 08:11:06;;;;;;;11.67;5.10;;;19.10;61.40;;;;;;5022790;28;20509;-65
2023/05/27 08:13:32;;;;;;;13.57;5.87;;;19.20;61.20;;;;;;5021134;28;20606;-65
2023/05/27 08:15:57;;;;;;;13.57;6.60;;;19.20;60.80;;;;;;5020603;28;20331;-65
2023/05/27 08:18:23;;;;;;;12.40;6.03;;;19.20;61.20;;;;;;5015798;28;20266;-65
2023/05/27 08:20:49;;;;;;;11.23;5.50;;;19.30;61.40;;;;;;5019686;28;20204;-65
2023/05/27 08:23:15;;;;;;;9.97;5.93;;;19.30;61.00;;;;;;5018518;28;20264;-65
2023/05/27 08:25:40;;;;;;;11.13;5.37;;;19.40;61.30;;;;;;5016270;28;20443;-66
2023/05/27 08:28:06;;;;;;;9.80;5.60;;;19.40;61.50;;;;;;5021794;28;20588;-65
2023/05/27 08:30:32;;;;;;;13.90;5.60;;;19.50;61.10;;;;;;5018222;28;20557;-65
2023/05/27 08:32:58;;;;;;;10.87;5.10;;;19.50;60.90;;;;;;5017423;28;20289;-65
2023/05/27 08:35:24;;;;;;;11.63;5.40;;;19.50;60.80;;;;;;5017808;28;20469;-65
2023/05/27 08:37:50;;;;;;;9.13;5.43;;;19.60;61.10;;;;;;5017795;28;20576;-65
2023/05/27 08:40:17;;;;;;;10.10;5.60;;;19.70;61.00;;;;;;5020115;28;21031;-65
2023/05/27 08:42:43;;;;;;;9.60;5.80;;;19.70;60.70;;;;;;5019528;28;20423;-65
2023/05/27 08:45:10;;;;;;;14.43;6.00;;;19.80;60.70;;;;;;5018628;28;20435;-65
2023/05/27 08:47:37;;;;;;;12.80;6.07;;;19.80;60.70;;;;;;5018951;28;20530;-65
2023/05/27 08:50:03;;;;;;;10.20;5.40;;;19.90;61.40;;;;;;5017900;28;20518;-65
2023/05/27 08:52:28;;;;;;;21.33;5.83;;;19.90;60.90;;;;;;5021706;28;20521;-65
2023/05/27 08:54:56;;;;;;;9.07;5.60;;;20.00;61.30;;;;;;5018170;28;20188;-65
2023/05/27 08:57:27;;;;;;;14.23;7.13;;;20.00;60.90;;;;;;5024392;28;20543;-65
2023/05/27 08:59:53;;;;;;;10.03;5.63;;;20.10;60.90;;;;;;5022022;28;20463;-65
2023/05/27 09:02:21;;;;;;;12.07;5.07;;;20.20;60.80;;;;;;5019924;28;20464;-65
2023/05/27 09:04:47;;;;;;;8.80;5.70;;;20.30;60.70;;;;;;5024901;28;20216;-65
2023/05/27 09:07:12;;;;;;;12.87;5.70;;;20.30;60.70;;;;;;5030059;28;20458;-66
2023/05/27 09:09:39;;;;;;;12.60;5.70;;;20.40;60.40;;;;;;5018190;28;20458;-66
2023/05/27 09:12:05;;;;;;;10.47;5.13;;;20.50;60.60;;;;;;5022926;28;20184;-63
2023/05/27 09:14:31;;;;;;;12.87;5.47;;;20.60;60.60;;;;;;5021321;28;20415;-63
2023/05/27 09:17:04;;;;;;;13.43;5.50;;;20.60;60.70;;;;;;5024208;28;20471;-63
2023/05/27 09:19:30;;;;;;;13.57;6.17;;;20.80;60.90;;;;;;5020404;28;20490;-64
2023/05/27 09:21:56;;;;;;;11.70;6.03;;;20.90;60.40;;;;;;5023601;28;20450;-65
2023/05/27 09:24:26;;;;;;;13.93;7.40;;;20.90;60.40;;;;;;5016598;28;20428;-65
2023/05/27 09:26:52;;;;;;;13.63;5.60;;;21.00;60.00;;;;;;5016434;28;20185;-65
2023/05/27 09:29:27;;;;;;;15.10;5.80;;;21.00;59.80;;;;;;5015682;28;20462;-65
2023/05/27 09:31:56;;;;;;;9.80;5.97;;;21.10;59.60;;;;;;5022868;28;20740;-65
2023/05/27 09:34:21;;;;;;;11.20;6.60;;;21.20;59.70;;;;;;5017491;28;20499;-65
2023/05/27 09:36:50;;;;;;;11.40;7.63;;;21.20;59.70;;;;;;5022834;28;20569;-65
2023/05/27 09:39:18;;;;;;;19.30;14.60;;;21.30;59.50;;;;;;5017998;28;20200;-65
2023/05/27 09:41:49;;;;;;;23.93;17.63;;;21.40;59.60;;;;;;5028563;28;20449;-65
2023/05/27 09:44:15;;;;;;;14.07;9.10;;;21.50;59.70;;;;;;5022399;28;20791;-65
2023/05/27 09:46:43;;;;;;;13.80;7.23;;;21.50;59.70;;;;;;5027387;28;20437;-65
2023/05/27 09:49:10;;;;;;;11.43;5.83;;;21.60;59.70;;;;;;5020038;28;20466;-65
2023/05/27 09:51:39;;;;;;;13.00;5.67;;;21.70;59.40;;;;;;5017289;28;20415;-65
2023/05/27 09:54:06;;;;;;;11.63;8.20;;;21.80;59.40;;;;;;5020650;28;20443;-65
2023/05/27 09:56:31;;;;;;;16.17;7.37;;;21.80;59.10;;;;;;5015924;28;20594;-65
2023/05/27 09:58:58;;;;;;;25.00;6.40;;;21.90;58.90;;;;;;5020015;28;20491;-65
2023/05/27 10:01:30;;;;;;;10.90;5.13;;;21.90;59.20;;;;;;5019536;28;20212;-65
2023/05/27 10:03:56;;;;;;;6.53;4.93;;;22.00;59.20;;;;;;5020108;28;20807;-66
2023/05/27 10:06:25;;;;;;;12.90;5.57;;;22.10;59.10;;;;;;5027716;28;20422;-65
2023/05/27 10:08:58;;;;;;;17.50;4.90;;;22.20;59.10;;;;;;5029167;28;20936;-65
2023/05/27 10:11:26;;;;;;;11.00;5.47;;;22.20;59.40;;;;;;5021294;28;20845;-65
2023/05/27 10:13:51;;;;;;;9.47;5.07;;;22.40;59.30;;;;;;5029714;28;20484;-65
2023/05/27 10:16:26;;;;;;;10.40;5.70;;;22.40;59.10;;;;;;5022563;28;21276;-65
2023/05/27 10:18:56;;;;;;;9.43;5.70;;;22.50;59.00;;;;;;5028029;28;20556;-65
2023/05/27 10:21:26;;;;;;;10.73;5.60;;;22.60;58.80;;;;;;5023927;28;20509;-65
2023/05/27 10:23:59;;;;;;;12.70;5.80;;;22.70;58.70;;;;;;5017162;28;20445;-65
2023/05/27 10:26:33;;;;;;;11.03;5.00;;;22.70;58.80;;;;;;5019294;28;20944;-65
2023/05/27 10:29:12;;;;;;;9.30;5.57;;;22.80;58.90;;;;;;5024984;28;20458;-65
2023/05/27 10:31:46;;;;;;;11.20;5.83;;;22.90;58.50;;;;;;5019877;28;20438;-65
2023/05/27 10:34:12;;;;;;;11.07;5.77;;;23.00;58.60;;;;;;5023768;28;20431;-65
2023/05/27 10:36:38;;;;;;;11.73;5.70;;;23.00;58.50;;;;;;5023347;28;20463;-65
2023/05/27 10:39:17;;;;;;;12.90;6.47;;;23.10;58.20;;;;;;5020638;28;20209;-65
2023/05/27 10:41:43;;;;;;;17.33;5.80;;;23.20;57.70;;;;;;5026042;28;21707;-65
2023/05/27 10:44:10;;;;;;;10.03;5.90;;;23.30;57.80;;;;;;5018869;28;20452;-65
2023/05/27 10:46:40;;;;;;;14.00;6.03;;;23.30;58.00;;;;;;5027201;28;20200;-65
2023/05/27 10:49:22;;;;;;;9.77;5.47;;;23.40;57.60;;;;;;5017989;28;21160;-65
2023/05/27 10:51:48;;;;;;;14.13;5.90;;;23.50;57.50;;;;;;5026453;28;20442;-65
2023/05/27 10:54:16;;;;;;;9.87;6.87;;;23.60;57.70;;;;;;5017384;28;20777;-65
2023/05/27 10:56:49;;;;;;;9.80;5.70;;;23.70;57.70;;;;;;5024570;28;20467;-65
2023/05/27 10:59:21;;;;;;;10.33;6.40;;;23.80;57.10;;;;;;5024135;28;20553;-65
2023/05/27 11:01:57;;;;;;;11.03;5.93;;;23.90;57.40;;;;;;5020171;28;20427;-65
2023/05/27 11:04:23;;;;;;;10.07;6.57;;;24.00;57.60;;;;;;5021109;28;20426;-65
2023/05/27 11:07:00;;;;;;;11.33;6.10;;;24.10;57.30;;;;;;5025386;28;20434;-65
2023/05/27 11:09:25;;;;;;;11.13;7.60;;;24.20;57.40;;;;;;5029733;28;20211;-65
2023/05/27 11:11:51;;;;;;;11.90;6.77;;;24.30;57.10;;;;;;5015913;28;20440;-65
2023/05/27 11:14:19;;;;;;;14.20;6.70;;;24.50;57.00;;;;;;5019433;28;20272;-65
2023/05/27 11:16:48;;;;;;;12.63;6.27;;;24.50;56.60;;;;;;5023582;28;20742;-65
2023/05/27 11:19:13;;;;;;;8.37;6.03;;;24.70;56.00;;;;;;5021060;28;20854;-65
2023/05/27 11:21:45;;;;;;;8.40;5.97;;;24.80;55.90;;;;;;5019221;28;20487;-65
2023/05/27 11:24:17;;;;;;;10.17;5.67;;;24.90;56.10;;;;;;5018936;28;20561;-65
2023/05/27 11:26:47;;;;;;;10.00;5.57;;;25.00;56.00;;;;;;5022487;28;20450;-65
2023/05/27 11:29:14;;;;;;;9.53;5.87;;;25.20;55.20;;;;;;5024939;28;20486;-66
2023/05/27 11:31:40;;;;;;;14.77;6.63;;;25.30;55.30;;;;;;5022795;28;20967;-65
2023/05/27 11:34:13;;;;;;;10.70;5.80;;;25.50;55.20;;;;;;5027634;28;20424;-65
2023/05/27 11:36:39;;;;;;;15.47;5.97;;;25.70;54.70;;;;;;5018245;28;20463;-65
2023/05/27 11:39:06;;;;;;;10.60;5.50;;;25.80;54.50;;;;;;5016804;28;20431;-65
2023/05/27 11:41:33;;;;;;;8.20;6.00;;;26.00;54.30;;;;;;5021784;28;20951;-65
2023/05/27 11:44:06;;;;;;;8.83;6.00;;;26.20;53.70;;;;;;5018582;28;20450;-65
2023/05/27 11:46:40;;;;;;;7.87;5.63;;;26.50;53.30;;;;;;5022887;28;20478;-65
2023/05/27 11:49:07;;;;;;;9.83;6.00;;;26.80;53.00;;;;;;5024719;28;20442;-65
2023/05/27 11:51:46;;;;;;;11.10;5.87;;;27.10;52.40;;;;;;5021560;28;20478;-65
2023/05/27 11:54:30;;;;;;;10.27;9.00;;;27.40;51.70;;;;;;5025299;28;20505;-65
2023/05/27 11:56:58;;;;;;;16.67;7.93;;;27.90;51.50;;;;;;5026559;28;20466;-65
2023/05/27 11:59:24;;;;;;;11.60;7.67;;;28.40;50.70;;;;;;5022471;28;20518;-65
2023/05/27 12:01:51;;;;;;;11.23;6.50;;;29.10;50.20;;;;;;5023873;28;20545;-65
2023/05/27 12:04:17;;;;;;;11.67;8.80;;;30.50;48.60;;;;;;5026729;28;20419;-65
2023/05/27 12:06:44;;;;;;;13.90;8.57;;;32.00;46.30;;;;;;5023419;28;20805;-65
2023/05/27 12:09:10;;;;;;;8.80;6.53;;;33.10;44.70;;;;;;5021715;28;20790;-65
2023/05/27 12:11:36;;;;;;;8.37;6.07;;;34.60;42.80;;;;;;5023688;28;20411;-66
2023/05/27 12:14:03;;;;;;;7.73;6.50;;;35.50;41.30;;;;;;5023587;28;20439;-66
2023/05/27 12:16:28;;;;;;;13.50;7.93;;;36.30;40.00;;;;;;5021894;28;20463;-66
2023/05/27 12:18:54;;;;;;;11.90;8.30;;;36.90;38.70;;;;;;5030982;28;20434;-66
2023/05/27 12:21:20;;;;;;;9.83;5.87;;;37.70;38.00;;;;;;5023378;28;20282;-66
2023/05/27 12:23:47;;;;;;;7.70;6.00;;;38.40;36.70;;;;;;5023873;28;20180;-63
2023/05/27 12:26:14;;;;;;;11.40;7.00;;;38.90;35.80;;;;;;5020283;28;20809;-63
2023/05/27 12:28:41;;;;;;;5.70;4.77;;;39.00;34.40;;;;;;5027211;28;20408;-66
2023/05/27 12:31:07;;;;;;;8.50;6.00;;;39.30;34.30;;;;;;5024210;28;20417;-65
2023/05/27 12:33:33;;;;;;;6.33;5.13;;;39.50;34.00;;;;;;5025136;28;20450;-65
2023/05/27 12:35:59;;;;;;;9.80;5.40;;;39.70;34.00;;;;;;5024825;28;20277;-65
2023/05/27 12:38:24;;;;;;;10.00;5.87;;;40.00;33.60;;;;;;5033269;28;20210;-65
2023/05/27 12:40:50;;;;;;;7.23;5.33;;;40.30;32.80;;;;;;5023949;28;20448;-65